Waverly, VA (23891)

8:22 PM EDT on August 29, 2014 (GMT -0400)
Wakefield Municipal | Change Station
CLOSE
Current Station
Airport
Location: Wakefield,
Elevation: 112 ft
Nearby Weather Stations

Elev 112 ft 36.98 °N, 77.01 °W | Updated 28 minutes ago

Overcast
Overcast
75 °F
Feels Like 75 °F
N
4
Wind Variable Wind from East

Today
High -- | Low -- °F
--% Chance of Precip.
Yesterday
High -- | Low -- °F
Precip. -- in
6:36 AM 7:41 PM
Waxing Crescent, 17% visible
Pressure 30.16 in
Visibility 10.0 miles
Clouds Overcast 4300 ft
Dew Point 64 °F
Humidity 69%
Rainfall 0.00 in
Snow Depth Not available.
UV 0 out of 12
Pollen 9.70 out of 12
Air Quality Not available.
Flu Activity Not available.
METAR KAKQ 292354Z AUTO 10003KT 10SM OVC043 24/18 A3016 RMK AO2 SLP211 T02390178 10289 20239 53008 TSNO

More Conditions Fewer Conditions

Pressure 30.16 in
Visibility 10.0 miles
Clouds Overcast 4300 ft
Dew Point 64 °F
Humidity 69%
Rainfall 0.00 in
Snow Depth Not available.
UV 0 out of 12
Pollen 9.70 out of 12
Air Quality Not available.
Flu Activity Not available.
METAR KAKQ 292354Z AUTO 10003KT 10SM OVC043 24/18 A3016 RMK AO2 SLP211 T02390178 10289 20239 53008 TSNO

More Conditions Fewer Conditions

10-Day Weather Forecast

Almanac

Astronomy

Aug. 29, 2014 Rise Set
Actual Time 6:36 AM EDT 7:41 PM EDT
Civil Twilight 6:09 AM EDT 8:07 PM EDT
Nautical Twilight 5:38 AM EDT 8:39 PM EDT
Astronomical Twilight 5:05 AM EDT 9:12 PM EDT
Moon 10:17 AM EDT (8/29) 9:44 PM EDT (8/29)
Length of Visible Light 13h 57m
Length of Day
13h 04m
Tomorrow will be 2m 15s shorter.
Waxing Crescent, 17% of the Moon is Illuminated
Today
Waxing Crescent
Sep 2
First Quarter
Sep 8
Full
Sep 15
Last Quarter
Sep 24
New

Today's Extremes

State Highs State Lows

Community

WunderPhotos

Upload Photos

1,748,384 photos uploaded!

Nearby

Snow Depth

Station Depth Elevation
No new snow has been reported.

Earthquake Activity

City Distance Mag. Time & Date
No recent earthquake activity has been reported nearby.
Minimum magnitude displayed is 2.5.

Coastal Water Temperatures

Place Temperature
No Stations Reporting

Nearby Weather Stations